sensor_id;sensor_type;location;lat;lon;timestamp;P1;durP1;ratioP1;P2;durP2;ratioP2
24161;SDS011;12318;51.262;7.066;2023-04-01T00:02:20;6.60;;;1.27;;
24161;SDS011;12318;51.262;7.066;2023-04-01T00:04:46;7.55;;;1.10;;
24161;SDS011;12318;51.262;7.066;2023-04-01T00:07:12;6.93;;;1.15;;
24161;SDS011;12318;51.262;7.066;2023-04-01T00:09:38;6.28;;;1.20;;
24161;SDS011;12318;51.262;7.066;2023-04-01T00:12:04;5.80;;;1.10;;
24161;SDS011;12318;51.262;7.066;2023-04-01T00:14:29;7.15;;;1.40;;
24161;SDS011;12318;51.262;7.066;2023-04-01T00:16:55;6.97;;;1.38;;
24161;SDS011;12318;51.262;7.066;2023-04-01T00:19:21;7.35;;;1.25;;
24161;SDS011;12318;51.262;7.066;2023-04-01T00:21:47;5.53;;;1.17;;
24161;SDS011;12318;51.262;7.066;2023-04-01T00:24:13;6.20;;;1.27;;
24161;SDS011;12318;51.262;7.066;2023-04-01T00:26:39;9.07;;;1.67;;
24161;SDS011;12318;51.262;7.066;2023-04-01T00:29:07;4.78;;;1.63;;
24161;SDS011;12318;51.262;7.066;2023-04-01T00:31:35;7.90;;;1.77;;
24161;SDS011;12318;51.262;7.066;2023-04-01T00:34:01;5.78;;;1.30;;
24161;SDS011;12318;51.262;7.066;2023-04-01T00:36:27;6.40;;;1.60;;
24161;SDS011;12318;51.262;7.066;2023-04-01T00:38:52;4.00;;;1.25;;
24161;SDS011;12318;51.262;7.066;2023-04-01T00:41:19;4.00;;;1.17;;
24161;SDS011;12318;51.262;7.066;2023-04-01T00:43:47;8.02;;;1.42;;
24161;SDS011;12318;51.262;7.066;2023-04-01T00:46:15;4.15;;;1.05;;
24161;SDS011;12318;51.262;7.066;2023-04-01T00:48:45;2.47;;;1.00;;
24161;SDS011;12318;51.262;7.066;2023-04-01T00:51:17;4.93;;;1.27;;
24161;SDS011;12318;51.262;7.066;2023-04-01T00:53:47;5.30;;;1.20;;
24161;SDS011;12318;51.262;7.066;2023-04-01T00:56:17;3.63;;;1.00;;
24161;SDS011;12318;51.262;7.066;2023-04-01T00:58:54;5.68;;;1.10;;
24161;SDS011;12318;51.262;7.066;2023-04-01T01:01:23;2.03;;;0.75;;
24161;SDS011;12318;51.262;7.066;2023-04-01T01:03:50;6.85;;;0.90;;
24161;SDS011;12318;51.262;7.066;2023-04-01T01:11:47;3.80;;;1.02;;
24161;SDS011;12318;51.262;7.066;2023-04-01T01:17:14;5.28;;;1.17;;
24161;SDS011;12318;51.262;7.066;2023-04-01T01:37:14;3.33;;;0.95;;
24161;SDS011;12318;51.262;7.066;2023-04-01T01:39:43;2.85;;;1.00;;
24161;SDS011;12318;51.262;7.066;2023-04-01T01:42:13;7.45;;;1.27;;
24161;SDS011;12318;51.262;7.066;2023-04-01T01:44:43;5.75;;;1.30;;
24161;SDS011;12318;51.262;7.066;2023-04-01T01:47:11;6.65;;;1.23;;
24161;SDS011;12318;51.262;7.066;2023-04-01T01:49:38;4.93;;;1.40;;
24161;SDS011;12318;51.262;7.066;2023-04-01T01:52:07;3.40;;;1.00;;
24161;SDS011;12318;51.262;7.066;2023-04-01T01:54:33;3.78;;;1.10;;
24161;SDS011;12318;51.262;7.066;2023-04-01T01:57:08;9.15;;;1.40;;
24161;SDS011;12318;51.262;7.066;2023-04-01T01:59:35;5.40;;;1.20;;
24161;SDS011;12318;51.262;7.066;2023-04-01T02:02:04;4.53;;;1.13;;
24161;SDS011;12318;51.262;7.066;2023-04-01T02:04:37;5.85;;;1.10;;
24161;SDS011;12318;51.262;7.066;2023-04-01T02:07:09;6.07;;;1.40;;
24161;SDS011;12318;51.262;7.066;2023-04-01T02:09:38;6.05;;;1.10;;
24161;SDS011;12318;51.262;7.066;2023-04-01T02:12:08;5.30;;;1.20;;
24161;SDS011;12318;51.262;7.066;2023-04-01T02:17:18;4.93;;;1.23;;
24161;SDS011;12318;51.262;7.066;2023-04-01T02:19:51;3.22;;;0.95;;
24161;SDS011;12318;51.262;7.066;2023-04-01T02:22:25;5.72;;;1.00;;
24161;SDS011;12318;51.262;7.066;2023-04-01T02:25:00;2.42;;;0.60;;
24161;SDS011;12318;51.262;7.066;2023-04-01T02:27:30;5.88;;;0.80;;
24161;SDS011;12318;51.262;7.066;2023-04-01T02:29:56;4.65;;;1.35;;
24161;SDS011;12318;51.262;7.066;2023-04-01T02:32:23;3.55;;;1.15;;
24161;SDS011;12318;51.262;7.066;2023-04-01T02:34:50;3.83;;;1.30;;
24161;SDS011;12318;51.262;7.066;2023-04-01T02:37:16;3.67;;;1.13;;
24161;SDS011;12318;51.262;7.066;2023-04-01T02:39:43;3.55;;;1.17;;
24161;SDS011;12318;51.262;7.066;2023-04-01T02:42:09;5.53;;;0.88;;
24161;SDS011;12318;51.262;7.066;2023-04-01T02:44:35;4.80;;;1.10;;
24161;SDS011;12318;51.262;7.066;2023-04-01T02:47:01;4.15;;;1.15;;
24161;SDS011;12318;51.262;7.066;2023-04-01T02:49:27;5.30;;;1.58;;
24161;SDS011;12318;51.262;7.066;2023-04-01T02:51:53;4.75;;;1.50;;
24161;SDS011;12318;51.262;7.066;2023-04-01T02:54:19;5.38;;;1.42;;
24161;SDS011;12318;51.262;7.066;2023-04-01T02:56:45;2.00;;;1.30;;
24161;SDS011;12318;51.262;7.066;2023-04-01T02:59:11;9.45;;;1.45;;
24161;SDS011;12318;51.262;7.066;2023-04-01T03:01:37;3.63;;;1.35;;
24161;SDS011;12318;51.262;7.066;2023-04-01T03:04:04;3.92;;;1.55;;
24161;SDS011;12318;51.262;7.066;2023-04-01T03:06:30;5.15;;;1.60;;
24161;SDS011;12318;51.262;7.066;2023-04-01T03:08:56;8.77;;;1.60;;
24161;SDS011;12318;51.262;7.066;2023-04-01T03:11:22;3.83;;;1.45;;
24161;SDS011;12318;51.262;7.066;2023-04-01T03:13:48;4.85;;;2.00;;
24161;SDS011;12318;51.262;7.066;2023-04-01T03:16:13;3.95;;;1.60;;
24161;SDS011;12318;51.262;7.066;2023-04-01T03:18:40;4.47;;;1.63;;
24161;SDS011;12318;51.262;7.066;2023-04-01T03:21:16;6.47;;;1.60;;
24161;SDS011;12318;51.262;7.066;2023-04-01T03:23:43;4.25;;;1.20;;
24161;SDS011;12318;51.262;7.066;2023-04-01T03:26:09;4.55;;;1.35;;
24161;SDS011;12318;51.262;7.066;2023-04-01T03:28:35;7.97;;;1.30;;
24161;SDS011;12318;51.262;7.066;2023-04-01T03:31:01;9.43;;;1.63;;
24161;SDS011;12318;51.262;7.066;2023-04-01T03:33:27;5.28;;;1.77;;
24161;SDS011;12318;51.262;7.066;2023-04-01T03:35:53;4.93;;;1.77;;
24161;SDS011;12318;51.262;7.066;2023-04-01T03:38:19;4.15;;;1.42;;
24161;SDS011;12318;51.262;7.066;2023-04-01T03:40:45;4.45;;;0.98;;
24161;SDS011;12318;51.262;7.066;2023-04-01T03:43:11;4.80;;;0.90;;
24161;SDS011;12318;51.262;7.066;2023-04-01T03:45:44;1.48;;;0.98;;
24161;SDS011;12318;51.262;7.066;2023-04-01T03:48:10;2.40;;;1.10;;
24161;SDS011;12318;51.262;7.066;2023-04-01T03:50:36;4.22;;;1.17;;
24161;SDS011;12318;51.262;7.066;2023-04-01T03:53:02;3.60;;;1.13;;
24161;SDS011;12318;51.262;7.066;2023-04-01T03:55:27;3.47;;;1.30;;
24161;SDS011;12318;51.262;7.066;2023-04-01T03:57:53;4.15;;;1.63;;
24161;SDS011;12318;51.262;7.066;2023-04-01T04:00:19;3.70;;;1.90;;
24161;SDS011;12318;51.262;7.066;2023-04-01T04:02:45;3.97;;;1.80;;
24161;SDS011;12318;51.262;7.066;2023-04-01T04:05:10;5.00;;;1.80;;
24161;SDS011;12318;51.262;7.066;2023-04-01T04:07:38;7.88;;;2.25;;
24161;SDS011;12318;51.262;7.066;2023-04-01T04:10:04;20.58;;;2.58;;
24161;SDS011;12318;51.262;7.066;2023-04-01T04:12:31;11.98;;;3.22;;
24161;SDS011;12318;51.262;7.066;2023-04-01T04:14:57;6.70;;;2.40;;
24161;SDS011;12318;51.262;7.066;2023-04-01T04:17:23;4.93;;;2.47;;
24161;SDS011;12318;51.262;7.066;2023-04-01T04:19:49;6.03;;;2.70;;
24161;SDS011;12318;51.262;7.066;2023-04-01T04:22:15;5.45;;;2.78;;
24161;SDS011;12318;51.262;7.066;2023-04-01T04:24:40;5.80;;;2.75;;
24161;SDS011;12318;51.262;7.066;2023-04-01T04:27:06;6.97;;;3.28;;
24161;SDS011;12318;51.262;7.066;2023-04-01T04:29:32;6.20;;;3.40;;
24161;SDS011;12318;51.262;7.066;2023-04-01T04:31:57;9.32;;;2.88;;
24161;SDS011;12318;51.262;7.066;2023-04-01T04:34:23;8.57;;;3.65;;
24161;SDS011;12318;51.262;7.066;2023-04-01T04:36:49;4.28;;;2.50;;
24161;SDS011;12318;51.262;7.066;2023-04-01T04:39:15;4.93;;;2.92;;
24161;SDS011;12318;51.262;7.066;2023-04-01T04:41:41;7.15;;;3.15;;
24161;SDS011;12318;51.262;7.066;2023-04-01T04:44:06;6.28;;;3.67;;
24161;SDS011;12318;51.262;7.066;2023-04-01T04:46:33;9.48;;;3.63;;
24161;SDS011;12318;51.262;7.066;2023-04-01T04:48:58;4.40;;;2.75;;
24161;SDS011;12318;51.262;7.066;2023-04-01T04:51:25;3.60;;;2.78;;
24161;SDS011;12318;51.262;7.066;2023-04-01T04:53:51;9.75;;;3.17;;
24161;SDS011;12318;51.262;7.066;2023-04-01T04:56:17;7.82;;;3.67;;
24161;SDS011;12318;51.262;7.066;2023-04-01T04:58:45;6.13;;;3.75;;
24161;SDS011;12318;51.262;7.066;2023-04-01T05:01:12;5.47;;;3.70;;
24161;SDS011;12318;51.262;7.066;2023-04-01T05:03:39;5.25;;;3.30;;
24161;SDS011;12318;51.262;7.066;2023-04-01T05:06:07;5.18;;;2.97;;
24161;SDS011;12318;51.262;7.066;2023-04-01T05:08:34;7.28;;;4.07;;
24161;SDS011;12318;51.262;7.066;2023-04-01T05:11:01;8.23;;;3.60;;
24161;SDS011;12318;51.262;7.066;2023-04-01T05:13:27;6.43;;;3.40;;
24161;SDS011;12318;51.262;7.066;2023-04-01T05:15:54;8.27;;;3.50;;
24161;SDS011;12318;51.262;7.066;2023-04-01T05:18:20;9.85;;;4.30;;
24161;SDS011;12318;51.262;7.066;2023-04-01T05:20:49;7.85;;;4.43;;
24161;SDS011;12318;51.262;7.066;2023-04-01T05:23:17;10.35;;;4.53;;
24161;SDS011;12318;51.262;7.066;2023-04-01T05:25:46;13.20;;;4.35;;
24161;SDS011;12318;51.262;7.066;2023-04-01T05:28:16;9.88;;;3.42;;
24161;SDS011;12318;51.262;7.066;2023-04-01T05:30:42;12.10;;;4.85;;
24161;SDS011;12318;51.262;7.066;2023-04-01T05:33:09;9.60;;;4.68;;
24161;SDS011;12318;51.262;7.066;2023-04-01T05:35:36;11.18;;;4.78;;
24161;SDS011;12318;51.262;7.066;2023-04-01T05:38:02;8.63;;;5.53;;
24161;SDS011;12318;51.262;7.066;2023-04-01T05:40:28;8.50;;;5.63;;
24161;SDS011;12318;51.262;7.066;2023-04-01T05:42:55;9.65;;;4.50;;
24161;SDS011;12318;51.262;7.066;2023-04-01T05:45:21;8.40;;;4.45;;
24161;SDS011;12318;51.262;7.066;2023-04-01T05:47:47;5.80;;;3.67;;
24161;SDS011;12318;51.262;7.066;2023-04-01T05:50:13;4.13;;;2.92;;
24161;SDS011;12318;51.262;7.066;2023-04-01T05:52:39;4.40;;;3.53;;
24161;SDS011;12318;51.262;7.066;2023-04-01T05:55:05;6.78;;;3.92;;
24161;SDS011;12318;51.262;7.066;2023-04-01T05:57:31;3.28;;;2.92;;
24161;SDS011;12318;51.262;7.066;2023-04-01T05:59:56;4.78;;;2.67;;
24161;SDS011;12318;51.262;7.066;2023-04-01T06:02:23;4.50;;;3.83;;
24161;SDS011;12318;51.262;7.066;2023-04-01T06:04:49;4.13;;;3.58;;
24161;SDS011;12318;51.262;7.066;2023-04-01T06:07:19;3.87;;;2.80;;
24161;SDS011;12318;51.262;7.066;2023-04-01T06:09:45;6.38;;;2.95;;
24161;SDS011;12318;51.262;7.066;2023-04-01T06:17:30;5.00;;;3.38;;
24161;SDS011;12318;51.262;7.066;2023-04-01T06:23:24;5.25;;;3.75;;
24161;SDS011;12318;51.262;7.066;2023-04-01T06:26:05;5.18;;;3.38;;
24161;SDS011;12318;51.262;7.066;2023-04-01T06:31:35;5.40;;;3.60;;
24161;SDS011;12318;51.262;7.066;2023-04-01T06:40:09;6.10;;;4.30;;
24161;SDS011;12318;51.262;7.066;2023-04-01T06:43:00;4.20;;;3.40;;
24161;SDS011;12318;51.262;7.066;2023-04-01T06:51:18;8.45;;;4.43;;
24161;SDS011;12318;51.262;7.066;2023-04-01T06:54:09;5.10;;;3.13;;
24161;SDS011;12318;51.262;7.066;2023-04-01T06:56:40;7.53;;;4.32;;
24161;SDS011;12318;51.262;7.066;2023-04-01T06:59:17;5.35;;;4.13;;
24161;SDS011;12318;51.262;7.066;2023-04-01T07:01:50;4.85;;;3.95;;
24161;SDS011;12318;51.262;7.066;2023-04-01T07:06:48;5.97;;;3.67;;
24161;SDS011;12318;51.262;7.066;2023-04-01T07:09:19;6.57;;;3.53;;
24161;SDS011;12318;51.262;7.066;2023-04-01T07:11:56;5.60;;;3.78;;
24161;SDS011;12318;51.262;7.066;2023-04-01T07:16:54;2.97;;;2.40;;
24161;SDS011;12318;51.262;7.066;2023-04-01T07:22:35;4.07;;;3.10;;
24161;SDS011;12318;51.262;7.066;2023-04-01T07:27:42;3.55;;;3.08;;
24161;SDS011;12318;51.262;7.066;2023-04-01T07:30:19;8.48;;;3.33;;
24161;SDS011;12318;51.262;7.066;2023-04-01T07:46:11;3.83;;;3.25;;
24161;SDS011;12318;51.262;7.066;2023-04-01T07:48:55;5.22;;;3.70;;
24161;SDS011;12318;51.262;7.066;2023-04-01T07:57:14;5.28;;;3.63;;
24161;SDS011;12318;51.262;7.066;2023-04-01T08:00:12;5.70;;;3.38;;
24161;SDS011;12318;51.262;7.066;2023-04-01T08:13:57;4.57;;;2.80;;
24161;SDS011;12318;51.262;7.066;2023-04-01T08:16:34;4.38;;;2.50;;
24161;SDS011;12318;51.262;7.066;2023-04-01T08:21:43;3.97;;;3.42;;
24161;SDS011;12318;51.262;7.066;2023-04-01T08:24:25;4.07;;;3.13;;
24161;SDS011;12318;51.262;7.066;2023-04-01T08:27:06;4.30;;;3.10;;
24161;SDS011;12318;51.262;7.066;2023-04-01T08:30:03;5.60;;;3.47;;
24161;SDS011;12318;51.262;7.066;2023-04-01T08:38:24;4.68;;;3.42;;
24161;SDS011;12318;51.262;7.066;2023-04-01T08:41:12;5.72;;;3.60;;
24161;SDS011;12318;51.262;7.066;2023-04-01T08:49:05;4.00;;;3.13;;
24161;SDS011;12318;51.262;7.066;2023-04-01T08:51:54;5.57;;;3.65;;
24161;SDS011;12318;51.262;7.066;2023-04-01T09:06:35;4.15;;;3.08;;
24161;SDS011;12318;51.262;7.066;2023-04-01T09:29:54;10.82;;;7.18;;
24161;SDS011;12318;51.262;7.066;2023-04-01T09:40:48;13.88;;;9.27;;
24161;SDS011;12318;51.262;7.066;2023-04-01T09:43:26;13.55;;;10.45;;
24161;SDS011;12318;51.262;7.066;2023-04-01T09:52:04;13.27;;;9.77;;
24161;SDS011;12318;51.262;7.066;2023-04-01T09:57:37;13.43;;;9.65;;
24161;SDS011;12318;51.262;7.066;2023-04-01T10:19:59;15.43;;;11.27;;
24161;SDS011;12318;51.262;7.066;2023-04-01T10:28:24;18.90;;;13.98;;
24161;SDS011;12318;51.262;7.066;2023-04-01T10:53:34;15.02;;;10.73;;
24161;SDS011;12318;51.262;7.066;2023-04-01T11:24:18;7.70;;;5.45;;
24161;SDS011;12318;51.262;7.066;2023-04-01T11:27:01;6.35;;;5.75;;
24161;SDS011;12318;51.262;7.066;2023-04-01T11:32:46;6.45;;;5.57;;
24161;SDS011;12318;51.262;7.066;2023-04-01T11:35:42;6.72;;;6.03;;
24161;SDS011;12318;51.262;7.066;2023-04-01T11:38:28;8.45;;;5.68;;
24161;SDS011;12318;51.262;7.066;2023-04-01T11:41:02;6.93;;;6.22;;
24161;SDS011;12318;51.262;7.066;2023-04-01T11:44:07;15.25;;;8.85;;
24161;SDS011;12318;51.262;7.066;2023-04-01T11:57:35;8.90;;;8.00;;
24161;SDS011;12318;51.262;7.066;2023-04-01T12:03:01;8.95;;;7.63;;
24161;SDS011;12318;51.262;7.066;2023-04-01T12:06:05;8.02;;;6.88;;
24161;SDS011;12318;51.262;7.066;2023-04-01T12:13:51;9.15;;;8.13;;
24161;SDS011;12318;51.262;7.066;2023-04-01T12:19:10;17.42;;;11.88;;
24161;SDS011;12318;51.262;7.066;2023-04-01T12:26:55;15.48;;;11.85;;
24161;SDS011;12318;51.262;7.066;2023-04-01T12:29:47;13.10;;;11.25;;
24161;SDS011;12318;51.262;7.066;2023-04-01T12:57:23;21.75;;;14.52;;
24161;SDS011;12318;51.262;7.066;2023-04-01T13:13:17;21.10;;;15.15;;
24161;SDS011;12318;51.262;7.066;2023-04-01T13:16:07;21.08;;;14.90;;
24161;SDS011;12318;51.262;7.066;2023-04-01T13:24:21;20.38;;;15.15;;
24161;SDS011;12318;51.262;7.066;2023-04-01T13:32:48;21.77;;;15.60;;
24161;SDS011;12318;51.262;7.066;2023-04-01T13:36:10;16.58;;;13.75;;
24161;SDS011;12318;51.262;7.066;2023-04-01T13:43:43;17.27;;;14.95;;
24161;SDS011;12318;51.262;7.066;2023-04-01T14:08:01;15.43;;;12.25;;
24161;SDS011;12318;51.262;7.066;2023-04-01T14:19:08;13.60;;;10.20;;
24161;SDS011;12318;51.262;7.066;2023-04-01T14:21:47;15.57;;;11.38;;
24161;SDS011;12318;51.262;7.066;2023-04-01T14:52:11;13.35;;;8.77;;
24161;SDS011;12318;51.262;7.066;2023-04-01T14:55:01;10.48;;;9.13;;
24161;SDS011;12318;51.262;7.066;2023-04-01T14:57:43;12.98;;;9.27;;
24161;SDS011;12318;51.262;7.066;2023-04-01T15:00:24;11.23;;;9.43;;
24161;SDS011;12318;51.262;7.066;2023-04-01T15:11:25;15.30;;;10.13;;
24161;SDS011;12318;51.262;7.066;2023-04-01T15:16:52;10.57;;;8.65;;
24161;SDS011;12318;51.262;7.066;2023-04-01T15:25:33;13.55;;;9.80;;
24161;SDS011;12318;51.262;7.066;2023-04-01T15:33:56;9.13;;;7.60;;
24161;SDS011;12318;51.262;7.066;2023-04-01T15:45:12;13.43;;;8.68;;
24161;SDS011;12318;51.262;7.066;2023-04-01T15:48:27;11.25;;;9.25;;
24161;SDS011;12318;51.262;7.066;2023-04-01T15:57:03;9.50;;;7.93;;
24161;SDS011;12318;51.262;7.066;2023-04-01T16:24:19;12.05;;;8.55;;
24161;SDS011;12318;51.262;7.066;2023-04-01T16:27:23;13.45;;;10.30;;
24161;SDS011;12318;51.262;7.066;2023-04-01T16:41:36;12.35;;;10.00;;
24161;SDS011;12318;51.262;7.066;2023-04-01T16:46:53;14.50;;;11.00;;
24161;SDS011;12318;51.262;7.066;2023-04-01T16:49:44;17.17;;;10.80;;
24161;SDS011;12318;51.262;7.066;2023-04-01T16:52:29;16.45;;;11.70;;
24161;SDS011;12318;51.262;7.066;2023-04-01T16:55:03;15.43;;;11.35;;
24161;SDS011;12318;51.262;7.066;2023-04-01T16:57:46;15.15;;;11.05;;
24161;SDS011;12318;51.262;7.066;2023-04-01T17:11:27;13.43;;;10.80;;
24161;SDS011;12318;51.262;7.066;2023-04-01T17:17:08;17.80;;;11.75;;
24161;SDS011;12318;51.262;7.066;2023-04-01T17:22:26;13.35;;;9.15;;
24161;SDS011;12318;51.262;7.066;2023-04-01T17:25:14;13.55;;;10.18;;
24161;SDS011;12318;51.262;7.066;2023-04-01T17:35:29;9.52;;;8.10;;
24161;SDS011;12318;51.262;7.066;2023-04-01T17:49:35;13.05;;;10.35;;
24161;SDS011;12318;51.262;7.066;2023-04-01T17:54:57;15.57;;;11.73;;
24161;SDS011;12318;51.262;7.066;2023-04-01T18:00:27;14.85;;;11.63;;
24161;SDS011;12318;51.262;7.066;2023-04-01T18:17:24;14.55;;;10.60;;
24161;SDS011;12318;51.262;7.066;2023-04-01T18:19:54;13.45;;;9.90;;
24161;SDS011;12318;51.262;7.066;2023-04-01T18:28:11;14.52;;;11.15;;
24161;SDS011;12318;51.262;7.066;2023-04-01T18:30:58;16.77;;;12.23;;
24161;SDS011;12318;51.262;7.066;2023-04-01T18:33:44;19.50;;;13.00;;
24161;SDS011;12318;51.262;7.066;2023-04-01T18:39:15;15.48;;;11.60;;
24161;SDS011;12318;51.262;7.066;2023-04-01T18:45:19;14.07;;;11.35;;
24161;SDS011;12318;51.262;7.066;2023-04-01T18:53:15;10.55;;;8.80;;
24161;SDS011;12318;51.262;7.066;2023-04-01T18:56:00;15.77;;;10.35;;
24161;SDS011;12318;51.262;7.066;2023-04-01T18:58:46;17.35;;;11.80;;
24161;SDS011;12318;51.262;7.066;2023-04-01T19:01:47;14.07;;;11.13;;
24161;SDS011;12318;51.262;7.066;2023-04-01T19:04:43;20.10;;;12.35;;
24161;SDS011;12318;51.262;7.066;2023-04-01T19:21:11;16.73;;;11.40;;
24161;SDS011;12318;51.262;7.066;2023-04-01T19:43:22;17.15;;;12.65;;
24161;SDS011;12318;51.262;7.066;2023-04-01T19:51:44;9.85;;;7.90;;
24161;SDS011;12318;51.262;7.066;2023-04-01T19:57:05;22.40;;;15.23;;
24161;SDS011;12318;51.262;7.066;2023-04-01T19:59:34;24.85;;;14.30;;
24161;SDS011;12318;51.262;7.066;2023-04-01T20:04:37;21.77;;;14.48;;
24161;SDS011;12318;51.262;7.066;2023-04-01T20:07:16;13.25;;;10.45;;
24161;SDS011;12318;51.262;7.066;2023-04-01T20:09:57;20.90;;;13.57;;
24161;SDS011;12318;51.262;7.066;2023-04-01T20:15:39;19.80;;;14.05;;
24161;SDS011;12318;51.262;7.066;2023-04-01T20:18:25;24.70;;;15.65;;
24161;SDS011;12318;51.262;7.066;2023-04-01T20:23:41;12.02;;;10.05;;
24161;SDS011;12318;51.262;7.066;2023-04-01T20:26:11;20.27;;;12.40;;
24161;SDS011;12318;51.262;7.066;2023-04-01T20:28:47;15.77;;;11.48;;
24161;SDS011;12318;51.262;7.066;2023-04-01T20:31:36;15.23;;;10.00;;
24161;SDS011;12318;51.262;7.066;2023-04-01T20:46:06;9.35;;;7.80;;
24161;SDS011;12318;51.262;7.066;2023-04-01T20:50:45;14.55;;;10.70;;
24161;SDS011;12318;51.262;7.066;2023-04-01T20:59:02;12.02;;;8.77;;
24161;SDS011;12318;51.262;7.066;2023-04-01T21:02:05;8.85;;;7.38;;
24161;SDS011;12318;51.262;7.066;2023-04-01T21:18:14;8.90;;;7.70;;
24161;SDS011;12318;51.262;7.066;2023-04-01T21:21:12;11.40;;;8.98;;
24161;SDS011;12318;51.262;7.066;2023-04-01T21:23:53;5.13;;;4.60;;
24161;SDS011;12318;51.262;7.066;2023-04-01T21:44:19;11.38;;;9.02;;
24161;SDS011;12318;51.262;7.066;2023-04-01T21:47:23;13.07;;;10.18;;
24161;SDS011;12318;51.262;7.066;2023-04-01T21:56:05;13.07;;;11.35;;
24161;SDS011;12318;51.262;7.066;2023-04-01T22:01:38;8.85;;;8.00;;
24161;SDS011;12318;51.262;7.066;2023-04-01T22:07:18;7.13;;;6.30;;
24161;SDS011;12318;51.262;7.066;2023-04-01T22:09:59;7.50;;;6.80;;
24161;SDS011;12318;51.262;7.066;2023-04-01T22:18:06;8.05;;;7.03;;
24161;SDS011;12318;51.262;7.066;2023-04-01T22:34:34;8.80;;;7.90;;
24161;SDS011;12318;51.262;7.066;2023-04-01T22:37:12;12.45;;;10.60;;
24161;SDS011;12318;51.262;7.066;2023-04-01T22:40:11;10.30;;;9.27;;
24161;SDS011;12318;51.262;7.066;2023-04-01T22:43:10;11.07;;;9.98;;
24161;SDS011;12318;51.262;7.066;2023-04-01T22:48:29;9.98;;;8.63;;
24161;SDS011;12318;51.262;7.066;2023-04-01T22:51:18;8.50;;;6.28;;
24161;SDS011;12318;51.262;7.066;2023-04-01T22:57:02;5.45;;;4.95;;
24161;SDS011;12318;51.262;7.066;2023-04-01T23:02:47;7.47;;;6.65;;
24161;SDS011;12318;51.262;7.066;2023-04-01T23:05:35;6.90;;;6.20;;
24161;SDS011;12318;51.262;7.066;2023-04-01T23:11:28;7.60;;;6.90;;
24161;SDS011;12318;51.262;7.066;2023-04-01T23:16:51;6.90;;;6.00;;
24161;SDS011;12318;51.262;7.066;2023-04-01T23:19:37;8.25;;;7.43;;
24161;SDS011;12318;51.262;7.066;2023-04-01T23:27:37;14.02;;;10.80;;
24161;SDS011;12318;51.262;7.066;2023-04-01T23:33:09;8.18;;;7.38;;
24161;SDS011;12318;51.262;7.066;2023-04-01T23:35:55;7.18;;;6.47;;
24161;SDS011;12318;51.262;7.066;2023-04-01T23:38:29;6.22;;;5.63;;
24161;SDS011;12318;51.262;7.066;2023-04-01T23:40:56;5.90;;;5.40;;
24161;SDS011;12318;51.262;7.066;2023-04-01T23:43:30;5.88;;;5.13;;
24161;SDS011;12318;51.262;7.066;2023-04-01T23:46:00;6.13;;;5.32;;
24161;SDS011;12318;51.262;7.066;2023-04-01T23:48:32;6.10;;;5.20;;
24161;SDS011;12318;51.262;7.066;2023-04-01T23:51:03;7.75;;;5.40;;
24161;SDS011;12318;51.262;7.066;2023-04-01T23:53:38;6.53;;;5.93;;
24161;SDS011;12318;51.262;7.066;2023-04-01T23:56:09;8.65;;;7.75;;
24161;SDS011;12318;51.262;7.066;2023-04-01T23:58:46;9.10;;;8.20;;
